sensor_id;sensor_type;location;lat;lon;timestamp;temperature;humidity
17489;DHT22;8861;52.644;4.734;2023-04-12T00:00:07;8.70;99.90
17489;DHT22;8861;52.644;4.734;2023-04-12T00:02:36;8.70;99.90
17489;DHT22;8861;52.644;4.734;2023-04-12T00:05:05;8.70;99.90
17489;DHT22;8861;52.644;4.734;2023-04-12T00:07:34;8.70;99.90
17489;DHT22;8861;52.644;4.734;2023-04-12T00:10:05;8.70;99.90
17489;DHT22;8861;52.644;4.734;2023-04-12T00:12:32;8.70;99.90
17489;DHT22;8861;52.644;4.734;2023-04-12T00:14:59;8.70;99.90
17489;DHT22;8861;52.644;4.734;2023-04-12T00:17:26;8.70;99.90
17489;DHT22;8861;52.644;4.734;2023-04-12T00:19:53;8.70;99.90
17489;DHT22;8861;52.644;4.734;2023-04-12T00:22:22;8.70;99.90
17489;DHT22;8861;52.644;4.734;2023-04-12T00:24:48;8.60;99.90
17489;DHT22;8861;52.644;4.734;2023-04-12T00:27:15;8.60;99.90
17489;DHT22;8861;52.644;4.734;2023-04-12T00:29:42;8.60;99.90
17489;DHT22;8861;52.644;4.734;2023-04-12T00:32:09;8.60;99.90
17489;DHT22;8861;52.644;4.734;2023-04-12T00:34:36;8.60;99.90
17489;DHT22;8861;52.644;4.734;2023-04-12T00:37:03;8.60;99.90
17489;DHT22;8861;52.644;4.734;2023-04-12T00:39:31;8.60;99.90
17489;DHT22;8861;52.644;4.734;2023-04-12T00:42:02;8.60;99.90
17489;DHT22;8861;52.644;4.734;2023-04-12T00:44:30;8.60;99.90
17489;DHT22;8861;52.644;4.734;2023-04-12T00:46:57;8.60;99.90
17489;DHT22;8861;52.644;4.734;2023-04-12T00:49:26;8.60;99.90
17489;DHT22;8861;52.644;4.734;2023-04-12T00:51:57;8.60;99.90
17489;DHT22;8861;52.644;4.734;2023-04-12T00:54:29;8.50;99.90
17489;DHT22;8861;52.644;4.734;2023-04-12T00:56:59;8.60;99.90
17489;DHT22;8861;52.644;4.734;2023-04-12T00:59:26;8.50;99.90
17489;DHT22;8861;52.644;4.734;2023-04-12T01:01:54;8.50;99.90
17489;DHT22;8861;52.644;4.734;2023-04-12T01:04:21;8.50;99.90
17489;DHT22;8861;52.644;4.734;2023-04-12T01:07:02;8.50;99.90
17489;DHT22;8861;52.644;4.734;2023-04-12T01:09:37;8.60;99.90
17489;DHT22;8861;52.644;4.734;2023-04-12T01:12:19;8.60;99.90
17489;DHT22;8861;52.644;4.734;2023-04-12T01:14:53;8.60;99.90
17489;DHT22;8861;52.644;4.734;2023-04-12T01:17:24;8.60;99.90
17489;DHT22;8861;52.644;4.734;2023-04-12T01:19:55;8.60;99.90
17489;DHT22;8861;52.644;4.734;2023-04-12T01:22:43;8.60;99.90
17489;DHT22;8861;52.644;4.734;2023-04-12T01:25:23;8.60;99.90
17489;DHT22;8861;52.644;4.734;2023-04-12T01:27:56;8.60;99.90
17489;DHT22;8861;52.644;4.734;2023-04-12T01:30:27;8.60;99.90
17489;DHT22;8861;52.644;4.734;2023-04-12T01:32:56;8.60;99.90
17489;DHT22;8861;52.644;4.734;2023-04-12T01:35:27;8.60;99.90
17489;DHT22;8861;52.644;4.734;2023-04-12T01:37:55;8.60;99.90
17489;DHT22;8861;52.644;4.734;2023-04-12T01:40:23;8.60;99.90
17489;DHT22;8861;52.644;4.734;2023-04-12T01:43:03;8.60;99.90
17489;DHT22;8861;52.644;4.734;2023-04-12T01:45:30;8.60;99.90
17489;DHT22;8861;52.644;4.734;2023-04-12T01:47:57;8.60;99.90
17489;DHT22;8861;52.644;4.734;2023-04-12T01:50:29;8.60;99.90
17489;DHT22;8861;52.644;4.734;2023-04-12T01:53:03;8.50;99.90
17489;DHT22;8861;52.644;4.734;2023-04-12T01:55:33;8.60;99.90
17489;DHT22;8861;52.644;4.734;2023-04-12T01:58:04;8.60;99.90
17489;DHT22;8861;52.644;4.734;2023-04-12T02:00:34;8.60;99.90
17489;DHT22;8861;52.644;4.734;2023-04-12T02:03:03;8.60;99.90
17489;DHT22;8861;52.644;4.734;2023-04-12T02:05:31;8.60;99.90
17489;DHT22;8861;52.644;4.734;2023-04-12T02:08:01;8.50;99.90
17489;DHT22;8861;52.644;4.734;2023-04-12T02:10:28;8.60;99.90
17489;DHT22;8861;52.644;4.734;2023-04-12T02:12:57;8.50;99.90
17489;DHT22;8861;52.644;4.734;2023-04-12T02:15:26;8.50;99.90
17489;DHT22;8861;52.644;4.734;2023-04-12T02:17:53;8.60;99.90
17489;DHT22;8861;52.644;4.734;2023-04-12T02:20:20;8.50;99.90
17489;DHT22;8861;52.644;4.734;2023-04-12T02:22:48;8.50;99.90
17489;DHT22;8861;52.644;4.734;2023-04-12T02:25:16;8.50;99.90
17489;DHT22;8861;52.644;4.734;2023-04-12T02:27:43;8.50;99.90
17489;DHT22;8861;52.644;4.734;2023-04-12T02:30:11;8.50;99.90
17489;DHT22;8861;52.644;4.734;2023-04-12T02:32:40;8.40;99.90
17489;DHT22;8861;52.644;4.734;2023-04-12T02:35:10;8.40;99.90
17489;DHT22;8861;52.644;4.734;2023-04-12T02:37:38;8.40;99.90
17489;DHT22;8861;52.644;4.734;2023-04-12T02:40:06;8.40;99.90
17489;DHT22;8861;52.644;4.734;2023-04-12T02:42:35;8.40;99.90
17489;DHT22;8861;52.644;4.734;2023-04-12T02:45:02;8.40;99.90
17489;DHT22;8861;52.644;4.734;2023-04-12T02:47:29;8.40;99.90
17489;DHT22;8861;52.644;4.734;2023-04-12T02:49:57;8.40;99.90
17489;DHT22;8861;52.644;4.734;2023-04-12T02:52:25;8.40;99.90
17489;DHT22;8861;52.644;4.734;2023-04-12T02:54:54;8.40;99.90
17489;DHT22;8861;52.644;4.734;2023-04-12T02:57:21;8.40;99.90
17489;DHT22;8861;52.644;4.734;2023-04-12T02:59:50;8.40;99.90
17489;DHT22;8861;52.644;4.734;2023-04-12T03:02:18;8.40;99.90
17489;DHT22;8861;52.644;4.734;2023-04-12T03:04:45;8.40;99.90
17489;DHT22;8861;52.644;4.734;2023-04-12T03:07:17;8.40;99.90
17489;DHT22;8861;52.644;4.734;2023-04-12T03:09:45;8.40;99.90
17489;DHT22;8861;52.644;4.734;2023-04-12T03:12:14;8.40;99.90
17489;DHT22;8861;52.644;4.734;2023-04-12T03:14:41;8.40;99.90
17489;DHT22;8861;52.644;4.734;2023-04-12T03:17:08;8.40;99.90
17489;DHT22;8861;52.644;4.734;2023-04-12T03:19:35;8.40;99.90
17489;DHT22;8861;52.644;4.734;2023-04-12T03:22:02;8.40;99.90
17489;DHT22;8861;52.644;4.734;2023-04-12T03:24:31;8.40;99.90
17489;DHT22;8861;52.644;4.734;2023-04-12T03:27:00;8.40;99.90
17489;DHT22;8861;52.644;4.734;2023-04-12T03:29:27;8.40;99.90
17489;DHT22;8861;52.644;4.734;2023-04-12T03:31:54;8.40;99.90
17489;DHT22;8861;52.644;4.734;2023-04-12T03:34:22;8.40;99.90
17489;DHT22;8861;52.644;4.734;2023-04-12T03:36:52;8.40;99.90
17489;DHT22;8861;52.644;4.734;2023-04-12T03:39:19;8.40;99.90
17489;DHT22;8861;52.644;4.734;2023-04-12T03:41:48;8.40;99.90
17489;DHT22;8861;52.644;4.734;2023-04-12T03:44:15;8.40;99.90
17489;DHT22;8861;52.644;4.734;2023-04-12T03:46:42;8.40;99.90
17489;DHT22;8861;52.644;4.734;2023-04-12T03:49:09;8.40;99.90
17489;DHT22;8861;52.644;4.734;2023-04-12T03:51:36;8.50;99.90
17489;DHT22;8861;52.644;4.734;2023-04-12T03:54:07;8.50;99.90
17489;DHT22;8861;52.644;4.734;2023-04-12T03:56:34;8.40;99.90
17489;DHT22;8861;52.644;4.734;2023-04-12T03:59:04;8.50;99.90
17489;DHT22;8861;52.644;4.734;2023-04-12T04:01:32;8.50;99.90
17489;DHT22;8861;52.644;4.734;2023-04-12T04:03:59;8.50;99.90
17489;DHT22;8861;52.644;4.734;2023-04-12T04:06:26;8.50;99.90
17489;DHT22;8861;52.644;4.734;2023-04-12T04:08:54;8.50;99.90
17489;DHT22;8861;52.644;4.734;2023-04-12T04:11:21;8.50;99.90
17489;DHT22;8861;52.644;4.734;2023-04-12T04:13:49;8.50;99.90
17489;DHT22;8861;52.644;4.734;2023-04-12T04:16:17;8.50;99.90
17489;DHT22;8861;52.644;4.734;2023-04-12T04:18:44;8.50;99.90
17489;DHT22;8861;52.644;4.734;2023-04-12T04:21:11;8.50;99.90
17489;DHT22;8861;52.644;4.734;2023-04-12T04:23:38;8.50;99.90
17489;DHT22;8861;52.644;4.734;2023-04-12T04:26:10;8.50;99.90
17489;DHT22;8861;52.644;4.734;2023-04-12T04:28:37;8.50;99.90
17489;DHT22;8861;52.644;4.734;2023-04-12T04:31:04;8.50;99.90
17489;DHT22;8861;52.644;4.734;2023-04-12T04:33:33;8.50;99.90
17489;DHT22;8861;52.644;4.734;2023-04-12T04:36:00;8.50;99.90
17489;DHT22;8861;52.644;4.734;2023-04-12T04:38:29;8.50;99.90
17489;DHT22;8861;52.644;4.734;2023-04-12T04:40:57;8.50;99.90
17489;DHT22;8861;52.644;4.734;2023-04-12T04:43:24;8.60;99.90
17489;DHT22;8861;52.644;4.734;2023-04-12T04:45:55;8.50;99.90
17489;DHT22;8861;52.644;4.734;2023-04-12T04:48:22;8.60;99.90
17489;DHT22;8861;52.644;4.734;2023-04-12T04:50:51;8.60;99.90
17489;DHT22;8861;52.644;4.734;2023-04-12T04:53:20;8.60;99.90
17489;DHT22;8861;52.644;4.734;2023-04-12T04:55:47;8.60;99.90
17489;DHT22;8861;52.644;4.734;2023-04-12T04:58:15;8.60;99.90
17489;DHT22;8861;52.644;4.734;2023-04-12T05:00:42;8.60;99.90
17489;DHT22;8861;52.644;4.734;2023-04-12T05:03:10;8.60;99.90
17489;DHT22;8861;52.644;4.734;2023-04-12T05:05:37;8.60;99.90
17489;DHT22;8861;52.644;4.734;2023-04-12T05:08:06;8.70;99.90
17489;DHT22;8861;52.644;4.734;2023-04-12T05:10:32;8.70;99.90
17489;DHT22;8861;52.644;4.734;2023-04-12T05:12:59;8.70;99.90
17489;DHT22;8861;52.644;4.734;2023-04-12T05:15:28;8.70;99.90
17489;DHT22;8861;52.644;4.734;2023-04-12T05:17:56;8.70;99.90
17489;DHT22;8861;52.644;4.734;2023-04-12T05:20:23;8.70;99.90
17489;DHT22;8861;52.644;4.734;2023-04-12T05:22:50;8.70;99.90
17489;DHT22;8861;52.644;4.734;2023-04-12T05:25:18;8.70;99.90
17489;DHT22;8861;52.644;4.734;2023-04-12T05:27:46;8.70;99.90
17489;DHT22;8861;52.644;4.734;2023-04-12T05:30:13;8.80;99.90
17489;DHT22;8861;52.644;4.734;2023-04-12T05:32:40;8.80;99.90
17489;DHT22;8861;52.644;4.734;2023-04-12T05:35:08;8.80;99.90
17489;DHT22;8861;52.644;4.734;2023-04-12T05:37:35;8.80;99.90
17489;DHT22;8861;52.644;4.734;2023-04-12T05:40:02;8.90;99.90
17489;DHT22;8861;52.644;4.734;2023-04-12T05:42:32;8.90;99.90
17489;DHT22;8861;52.644;4.734;2023-04-12T05:44:59;9.00;99.90
17489;DHT22;8861;52.644;4.734;2023-04-12T05:47:26;9.00;99.90
17489;DHT22;8861;52.644;4.734;2023-04-12T05:49:53;9.10;99.90
17489;DHT22;8861;52.644;4.734;2023-04-12T05:52:20;9.10;99.90
17489;DHT22;8861;52.644;4.734;2023-04-12T05:54:47;9.10;99.90
17489;DHT22;8861;52.644;4.734;2023-04-12T05:57:14;9.10;99.90
17489;DHT22;8861;52.644;4.734;2023-04-12T05:59:43;9.20;99.90
17489;DHT22;8861;52.644;4.734;2023-04-12T06:02:10;9.20;99.90
17489;DHT22;8861;52.644;4.734;2023-04-12T06:04:37;9.20;99.90
17489;DHT22;8861;52.644;4.734;2023-04-12T06:07:05;9.20;99.90
17489;DHT22;8861;52.644;4.734;2023-04-12T06:09:34;9.30;99.90
17489;DHT22;8861;52.644;4.734;2023-04-12T06:12:01;9.30;99.90
17489;DHT22;8861;52.644;4.734;2023-04-12T06:14:28;9.30;99.90
17489;DHT22;8861;52.644;4.734;2023-04-12T06:16:56;9.30;99.90
17489;DHT22;8861;52.644;4.734;2023-04-12T06:19:23;9.30;99.90
17489;DHT22;8861;52.644;4.734;2023-04-12T06:21:51;9.30;99.90
17489;DHT22;8861;52.644;4.734;2023-04-12T06:24:18;9.20;99.90
17489;DHT22;8861;52.644;4.734;2023-04-12T06:26:45;9.20;99.90
17489;DHT22;8861;52.644;4.734;2023-04-12T06:29:12;9.10;99.90
17489;DHT22;8861;52.644;4.734;2023-04-12T06:31:39;9.10;99.90
17489;DHT22;8861;52.644;4.734;2023-04-12T06:34:07;9.00;99.90
17489;DHT22;8861;52.644;4.734;2023-04-12T06:36:34;8.90;99.90
17489;DHT22;8861;52.644;4.734;2023-04-12T06:39:03;8.90;99.90
17489;DHT22;8861;52.644;4.734;2023-04-12T06:41:30;8.80;99.90
17489;DHT22;8861;52.644;4.734;2023-04-12T06:43:57;8.70;99.90
17489;DHT22;8861;52.644;4.734;2023-04-12T06:46:27;8.70;99.90
17489;DHT22;8861;52.644;4.734;2023-04-12T06:48:54;8.60;99.90
17489;DHT22;8861;52.644;4.734;2023-04-12T06:51:22;8.60;99.90
17489;DHT22;8861;52.644;4.734;2023-04-12T06:53:49;8.60;99.90
17489;DHT22;8861;52.644;4.734;2023-04-12T06:56:16;8.50;99.90
17489;DHT22;8861;52.644;4.734;2023-04-12T06:58:43;8.50;99.90
17489;DHT22;8861;52.644;4.734;2023-04-12T07:01:10;8.50;99.90
17489;DHT22;8861;52.644;4.734;2023-04-12T07:03:39;8.50;99.90
17489;DHT22;8861;52.644;4.734;2023-04-12T07:06:06;8.60;99.90
17489;DHT22;8861;52.644;4.734;2023-04-12T07:08:35;8.60;99.90
17489;DHT22;8861;52.644;4.734;2023-04-12T07:11:03;8.70;99.90
17489;DHT22;8861;52.644;4.734;2023-04-12T07:13:30;8.80;99.90
17489;DHT22;8861;52.644;4.734;2023-04-12T07:15:56;9.00;99.90
17489;DHT22;8861;52.644;4.734;2023-04-12T07:18:25;9.10;99.90
17489;DHT22;8861;52.644;4.734;2023-04-12T07:20:53;9.20;99.90
17489;DHT22;8861;52.644;4.734;2023-04-12T07:23:21;9.30;99.90
17489;DHT22;8861;52.644;4.734;2023-04-12T07:25:49;9.30;99.90
17489;DHT22;8861;52.644;4.734;2023-04-12T07:28:17;9.40;99.90
17489;DHT22;8861;52.644;4.734;2023-04-12T07:30:44;9.50;99.90
17489;DHT22;8861;52.644;4.734;2023-04-12T07:33:11;9.60;99.90
17489;DHT22;8861;52.644;4.734;2023-04-12T07:35:38;9.70;99.90
17489;DHT22;8861;52.644;4.734;2023-04-12T07:38:05;10.00;99.90
17489;DHT22;8861;52.644;4.734;2023-04-12T07:40:32;10.10;99.90
17489;DHT22;8861;52.644;4.734;2023-04-12T07:43:01;10.30;99.90
17489;DHT22;8861;52.644;4.734;2023-04-12T07:45:28;10.30;99.90
17489;DHT22;8861;52.644;4.734;2023-04-12T07:47:55;10.40;99.90
17489;DHT22;8861;52.644;4.734;2023-04-12T07:50:22;10.50;99.90
17489;DHT22;8861;52.644;4.734;2023-04-12T07:52:49;10.70;99.90
17489;DHT22;8861;52.644;4.734;2023-04-12T07:55:16;10.80;99.90
17489;DHT22;8861;52.644;4.734;2023-04-12T07:57:42;10.80;99.90
17489;DHT22;8861;52.644;4.734;2023-04-12T08:00:12;10.90;99.90
17489;DHT22;8861;52.644;4.734;2023-04-12T08:02:39;10.80;99.90
17489;DHT22;8861;52.644;4.734;2023-04-12T08:05:06;10.80;99.90
17489;DHT22;8861;52.644;4.734;2023-04-12T08:07:33;10.70;99.90
17489;DHT22;8861;52.644;4.734;2023-04-12T08:10:00;10.70;99.90
17489;DHT22;8861;52.644;4.734;2023-04-12T08:12:28;10.60;99.90
17489;DHT22;8861;52.644;4.734;2023-04-12T08:14:56;10.70;99.90
17489;DHT22;8861;52.644;4.734;2023-04-12T08:17:24;10.60;99.90
17489;DHT22;8861;52.644;4.734;2023-04-12T08:19:53;10.60;99.90
17489;DHT22;8861;52.644;4.734;2023-04-12T08:22:20;10.60;99.90
17489;DHT22;8861;52.644;4.734;2023-04-12T08:24:46;10.60;99.90
17489;DHT22;8861;52.644;4.734;2023-04-12T08:27:14;10.60;99.90
17489;DHT22;8861;52.644;4.734;2023-04-12T08:29:41;10.60;99.90
17489;DHT22;8861;52.644;4.734;2023-04-12T08:32:09;10.60;99.90
17489;DHT22;8861;52.644;4.734;2023-04-12T08:34:38;10.50;99.90
17489;DHT22;8861;52.644;4.734;2023-04-12T08:37:05;10.60;99.90
17489;DHT22;8861;52.644;4.734;2023-04-12T08:39:32;10.70;99.90
17489;DHT22;8861;52.644;4.734;2023-04-12T08:41:59;10.90;99.90
17489;DHT22;8861;52.644;4.734;2023-04-12T08:44:33;11.20;99.90
17489;DHT22;8861;52.644;4.734;2023-04-12T08:47:03;11.30;99.90
17489;DHT22;8861;52.644;4.734;2023-04-12T08:49:30;11.40;99.90
17489;DHT22;8861;52.644;4.734;2023-04-12T08:52:02;11.40;99.90
17489;DHT22;8861;52.644;4.734;2023-04-12T08:54:30;11.40;99.90
17489;DHT22;8861;52.644;4.734;2023-04-12T08:56:59;11.30;99.90
17489;DHT22;8861;52.644;4.734;2023-04-12T08:59:27;11.10;99.90
17489;DHT22;8861;52.644;4.734;2023-04-12T09:01:55;11.10;99.90
17489;DHT22;8861;52.644;4.734;2023-04-12T09:04:23;11.10;99.90
17489;DHT22;8861;52.644;4.734;2023-04-12T09:06:51;11.10;99.90
17489;DHT22;8861;52.644;4.734;2023-04-12T09:09:31;11.10;99.90
17489;DHT22;8861;52.644;4.734;2023-04-12T09:12:06;11.00;99.90
17489;DHT22;8861;52.644;4.734;2023-04-12T09:14:33;10.90;99.90
17489;DHT22;8861;52.644;4.734;2023-04-12T09:17:00;10.90;99.90
17489;DHT22;8861;52.644;4.734;2023-04-12T09:19:30;10.80;99.90
17489;DHT22;8861;52.644;4.734;2023-04-12T09:21:58;10.90;99.90
17489;DHT22;8861;52.644;4.734;2023-04-12T09:24:26;10.90;99.90
17489;DHT22;8861;52.644;4.734;2023-04-12T09:27:01;10.90;99.90
17489;DHT22;8861;52.644;4.734;2023-04-12T09:29:28;10.80;99.90
17489;DHT22;8861;52.644;4.734;2023-04-12T09:31:59;10.90;99.90
17489;DHT22;8861;52.644;4.734;2023-04-12T09:34:27;10.90;99.90
17489;DHT22;8861;52.644;4.734;2023-04-12T09:36:54;10.90;99.90
17489;DHT22;8861;52.644;4.734;2023-04-12T09:39:31;10.80;99.90
17489;DHT22;8861;52.644;4.734;2023-04-12T09:42:06;10.70;99.90
17489;DHT22;8861;52.644;4.734;2023-04-12T09:44:34;10.60;99.90
17489;DHT22;8861;52.644;4.734;2023-04-12T09:47:01;10.60;99.90
17489;DHT22;8861;52.644;4.734;2023-04-12T09:49:37;10.60;99.90
17489;DHT22;8861;52.644;4.734;2023-04-12T09:52:05;10.60;99.90
17489;DHT22;8861;52.644;4.734;2023-04-12T09:54:37;10.70;99.90
17489;DHT22;8861;52.644;4.734;2023-04-12T09:57:06;10.80;99.90
17489;DHT22;8861;52.644;4.734;2023-04-12T09:59:36;10.90;99.90
17489;DHT22;8861;52.644;4.734;2023-04-12T10:02:13;10.90;99.90
17489;DHT22;8861;52.644;4.734;2023-04-12T10:04:41;11.00;99.90
17489;DHT22;8861;52.644;4.734;2023-04-12T10:07:08;11.10;99.90
17489;DHT22;8861;52.644;4.734;2023-04-12T10:09:38;11.20;99.90
17489;DHT22;8861;52.644;4.734;2023-04-12T10:12:07;11.30;99.90
17489;DHT22;8861;52.644;4.734;2023-04-12T10:14:34;11.40;99.90
17489;DHT22;8861;52.644;4.734;2023-04-12T10:17:03;11.50;99.90
17489;DHT22;8861;52.644;4.734;2023-04-12T10:19:31;11.50;99.90
17489;DHT22;8861;52.644;4.734;2023-04-12T10:21:59;11.50;99.90
17489;DHT22;8861;52.644;4.734;2023-04-12T10:24:27;11.60;99.90
17489;DHT22;8861;52.644;4.734;2023-04-12T10:26:57;11.60;99.90
17489;DHT22;8861;52.644;4.734;2023-04-12T10:29:28;11.50;99.90
17489;DHT22;8861;52.644;4.734;2023-04-12T10:31:56;11.50;99.90
17489;DHT22;8861;52.644;4.734;2023-04-12T10:34:26;11.50;99.90
17489;DHT22;8861;52.644;4.734;2023-04-12T10:36:56;11.50;99.90
17489;DHT22;8861;52.644;4.734;2023-04-12T10:39:38;11.70;99.90
17489;DHT22;8861;52.644;4.734;2023-04-12T10:42:17;11.70;99.90
17489;DHT22;8861;52.644;4.734;2023-04-12T10:44:44;11.70;99.90
17489;DHT22;8861;52.644;4.734;2023-04-12T10:47:11;11.80;99.90
17489;DHT22;8861;52.644;4.734;2023-04-12T10:49:38;11.70;99.90
17489;DHT22;8861;52.644;4.734;2023-04-12T10:52:13;11.70;99.90
17489;DHT22;8861;52.644;4.734;2023-04-12T10:54:43;11.80;99.90
17489;DHT22;8861;52.644;4.734;2023-04-12T10:57:42;11.90;99.90
17489;DHT22;8861;52.644;4.734;2023-04-12T11:00:10;11.90;99.90
17489;DHT22;8861;52.644;4.734;2023-04-12T11:03:06;12.10;99.90
17489;DHT22;8861;52.644;4.734;2023-04-12T11:05:59;12.30;99.90
17489;DHT22;8861;52.644;4.734;2023-04-12T11:08:27;12.50;99.90
17489;DHT22;8861;52.644;4.734;2023-04-12T11:11:01;12.40;99.90
17489;DHT22;8861;52.644;4.734;2023-04-12T11:13:34;12.30;99.90
17489;DHT22;8861;52.644;4.734;2023-04-12T11:16:03;12.20;99.90
17489;DHT22;8861;52.644;4.734;2023-04-12T11:18:32;12.30;99.90
17489;DHT22;8861;52.644;4.734;2023-04-12T11:21:01;12.50;99.90
17489;DHT22;8861;52.644;4.734;2023-04-12T11:23:28;12.70;99.90
17489;DHT22;8861;52.644;4.734;2023-04-12T11:25:56;13.00;99.90
17489;DHT22;8861;52.644;4.734;2023-04-12T11:28:23;13.10;99.90
17489;DHT22;8861;52.644;4.734;2023-04-12T11:30:53;13.00;99.90
17489;DHT22;8861;52.644;4.734;2023-04-12T11:33:33;12.90;99.90
17489;DHT22;8861;52.644;4.734;2023-04-12T11:36:03;12.80;99.90
17489;DHT22;8861;52.644;4.734;2023-04-12T11:38:32;12.90;99.90
17489;DHT22;8861;52.644;4.734;2023-04-12T11:41:10;13.00;99.90
17489;DHT22;8861;52.644;4.734;2023-04-12T11:43:41;13.00;99.90
17489;DHT22;8861;52.644;4.734;2023-04-12T11:46:10;13.00;99.90
17489;DHT22;8861;52.644;4.734;2023-04-12T11:48:38;13.10;99.90
17489;DHT22;8861;52.644;4.734;2023-04-12T11:51:18;13.10;99.90
17489;DHT22;8861;52.644;4.734;2023-04-12T11:53:45;13.00;99.90
17489;DHT22;8861;52.644;4.734;2023-04-12T11:56:12;13.00;99.90
17489;DHT22;8861;52.644;4.734;2023-04-12T11:58:39;13.00;99.90
17489;DHT22;8861;52.644;4.734;2023-04-12T12:01:06;13.10;99.90
17489;DHT22;8861;52.644;4.734;2023-04-12T12:03:35;13.30;99.90
17489;DHT22;8861;52.644;4.734;2023-04-12T12:06:02;13.30;99.90
17489;DHT22;8861;52.644;4.734;2023-04-12T12:08:30;13.50;99.90
17489;DHT22;8861;52.644;4.734;2023-04-12T12:10:57;13.50;99.90
17489;DHT22;8861;52.644;4.734;2023-04-12T12:13:24;13.50;99.90
17489;DHT22;8861;52.644;4.734;2023-04-12T12:15:51;13.50;99.90
17489;DHT22;8861;52.644;4.734;2023-04-12T12:18:18;13.40;99.90
17489;DHT22;8861;52.644;4.734;2023-04-12T12:20:52;13.40;99.90
17489;DHT22;8861;52.644;4.734;2023-04-12T12:23:30;13.40;99.90
17489;DHT22;8861;52.644;4.734;2023-04-12T12:25:57;13.40;99.90
17489;DHT22;8861;52.644;4.734;2023-04-12T12:28:24;13.40;99.90
17489;DHT22;8861;52.644;4.734;2023-04-12T12:30:52;13.40;99.90
17489;DHT22;8861;52.644;4.734;2023-04-12T12:33:19;13.40;99.90
17489;DHT22;8861;52.644;4.734;2023-04-12T12:35:46;13.40;99.90
17489;DHT22;8861;52.644;4.734;2023-04-12T12:38:15;13.20;99.90
17489;DHT22;8861;52.644;4.734;2023-04-12T12:40:42;13.10;99.90
17489;DHT22;8861;52.644;4.734;2023-04-12T12:43:17;13.00;99.90
17489;DHT22;8861;52.644;4.734;2023-04-12T12:45:44;12.90;99.90
17489;DHT22;8861;52.644;4.734;2023-04-12T12:48:12;12.90;99.90
17489;DHT22;8861;52.644;4.734;2023-04-12T12:50:39;12.80;99.90
17489;DHT22;8861;52.644;4.734;2023-04-12T12:53:07;12.70;99.90
17489;DHT22;8861;52.644;4.734;2023-04-12T12:55:36;12.50;99.90
17489;DHT22;8861;52.644;4.734;2023-04-12T12:58:04;12.50;99.90
17489;DHT22;8861;52.644;4.734;2023-04-12T13:00:31;12.40;99.90
17489;DHT22;8861;52.644;4.734;2023-04-12T13:02:58;12.20;99.90
17489;DHT22;8861;52.644;4.734;2023-04-12T13:05:25;12.10;99.90
17489;DHT22;8861;52.644;4.734;2023-04-12T13:07:52;12.00;99.90
17489;DHT22;8861;52.644;4.734;2023-04-12T13:10:19;12.10;99.90
17489;DHT22;8861;52.644;4.734;2023-04-12T13:12:47;12.20;99.90
17489;DHT22;8861;52.644;4.734;2023-04-12T13:15:14;12.30;99.90
17489;DHT22;8861;52.644;4.734;2023-04-12T13:17:41;12.50;99.90
17489;DHT22;8861;52.644;4.734;2023-04-12T13:20:08;12.70;99.90
17489;DHT22;8861;52.644;4.734;2023-04-12T13:22:35;12.90;99.90
17489;DHT22;8861;52.644;4.734;2023-04-12T13:25:03;13.20;99.90
17489;DHT22;8861;52.644;4.734;2023-04-12T13:27:30;13.50;99.90
17489;DHT22;8861;52.644;4.734;2023-04-12T13:29:58;13.90;99.90
17489;DHT22;8861;52.644;4.734;2023-04-12T13:32:25;14.10;99.90
17489;DHT22;8861;52.644;4.734;2023-04-12T13:34:52;14.10;99.90
17489;DHT22;8861;52.644;4.734;2023-04-12T13:37:19;14.00;99.90
17489;DHT22;8861;52.644;4.734;2023-04-12T13:39:46;13.80;99.90
17489;DHT22;8861;52.644;4.734;2023-04-12T13:42:14;13.90;99.90
17489;DHT22;8861;52.644;4.734;2023-04-12T13:44:41;14.00;99.90
17489;DHT22;8861;52.644;4.734;2023-04-12T13:47:09;14.10;99.90
17489;DHT22;8861;52.644;4.734;2023-04-12T13:49:37;14.30;99.90
17489;DHT22;8861;52.644;4.734;2023-04-12T13:52:04;14.20;99.90
17489;DHT22;8861;52.644;4.734;2023-04-12T13:54:31;14.10;99.90
17489;DHT22;8861;52.644;4.734;2023-04-12T13:56:58;14.00;99.90
17489;DHT22;8861;52.644;4.734;2023-04-12T13:59:25;14.00;99.90
17489;DHT22;8861;52.644;4.734;2023-04-12T14:01:52;14.00;99.90
17489;DHT22;8861;52.644;4.734;2023-04-12T14:04:21;14.10;99.90
17489;DHT22;8861;52.644;4.734;2023-04-12T14:06:48;14.20;99.90
17489;DHT22;8861;52.644;4.734;2023-04-12T14:09:22;14.30;99.90
17489;DHT22;8861;52.644;4.734;2023-04-12T14:11:50;14.40;99.90
17489;DHT22;8861;52.644;4.734;2023-04-12T14:14:17;14.40;99.90
17489;DHT22;8861;52.644;4.734;2023-04-12T14:16:45;14.40;99.90
17489;DHT22;8861;52.644;4.734;2023-04-12T14:19:12;14.20;99.90
17489;DHT22;8861;52.644;4.734;2023-04-12T14:21:40;14.20;99.90
17489;DHT22;8861;52.644;4.734;2023-04-12T14:24:07;14.10;99.90
17489;DHT22;8861;52.644;4.734;2023-04-12T14:26:34;14.10;99.90
17489;DHT22;8861;52.644;4.734;2023-04-12T14:29:04;14.10;99.90
17489;DHT22;8861;52.644;4.734;2023-04-12T14:31:31;14.10;99.90
17489;DHT22;8861;52.644;4.734;2023-04-12T14:33:58;14.10;99.90
17489;DHT22;8861;52.644;4.734;2023-04-12T14:36:25;14.10;99.90
17489;DHT22;8861;52.644;4.734;2023-04-12T14:38:54;14.30;99.90
17489;DHT22;8861;52.644;4.734;2023-04-12T14:41:21;14.50;99.90
17489;DHT22;8861;52.644;4.734;2023-04-12T14:43:48;14.60;99.90
17489;DHT22;8861;52.644;4.734;2023-04-12T14:46:15;14.70;99.90
17489;DHT22;8861;52.644;4.734;2023-04-12T14:48:42;14.80;99.90
17489;DHT22;8861;52.644;4.734;2023-04-12T14:51:10;15.30;99.90
17489;DHT22;8861;52.644;4.734;2023-04-12T14:53:37;15.70;99.90
17489;DHT22;8861;52.644;4.734;2023-04-12T14:56:15;15.80;99.90
17489;DHT22;8861;52.644;4.734;2023-04-12T14:58:43;16.30;99.90
17489;DHT22;8861;52.644;4.734;2023-04-12T15:01:10;16.40;99.90
17489;DHT22;8861;52.644;4.734;2023-04-12T15:03:37;16.50;99.90
17489;DHT22;8861;52.644;4.734;2023-04-12T15:06:06;17.10;99.90
17489;DHT22;8861;52.644;4.734;2023-04-12T15:08:34;17.60;99.90
17489;DHT22;8861;52.644;4.734;2023-04-12T15:11:08;18.00;99.90
17489;DHT22;8861;52.644;4.734;2023-04-12T15:13:36;18.10;99.90
17489;DHT22;8861;52.644;4.734;2023-04-12T15:16:05;18.70;99.90
17489;DHT22;8861;52.644;4.734;2023-04-12T15:18:33;19.50;99.90
17489;DHT22;8861;52.644;4.734;2023-04-12T15:21:04;20.30;99.90
17489;DHT22;8861;52.644;4.734;2023-04-12T15:23:32;21.00;99.90
17489;DHT22;8861;52.644;4.734;2023-04-12T15:25:59;21.40;99.90
17489;DHT22;8861;52.644;4.734;2023-04-12T15:28:28;21.70;99.90
17489;DHT22;8861;52.644;4.734;2023-04-12T15:30:55;21.20;99.90
17489;DHT22;8861;52.644;4.734;2023-04-12T15:33:22;20.40;99.90
17489;DHT22;8861;52.644;4.734;2023-04-12T15:35:49;19.50;99.90
17489;DHT22;8861;52.644;4.734;2023-04-12T15:38:18;18.80;99.90
17489;DHT22;8861;52.644;4.734;2023-04-12T15:40:45;18.30;99.90
17489;DHT22;8861;52.644;4.734;2023-04-12T15:43:12;17.90;99.90
17489;DHT22;8861;52.644;4.734;2023-04-12T15:45:40;17.40;99.90
17489;DHT22;8861;52.644;4.734;2023-04-12T15:48:08;16.90;99.90
17489;DHT22;8861;52.644;4.734;2023-04-12T15:50:35;16.40;99.90
17489;DHT22;8861;52.644;4.734;2023-04-12T15:53:02;15.90;99.90
17489;DHT22;8861;52.644;4.734;2023-04-12T15:55:29;15.50;99.90
17489;DHT22;8861;52.644;4.734;2023-04-12T15:57:56;15.20;99.90
17489;DHT22;8861;52.644;4.734;2023-04-12T16:00:23;14.90;99.90